Terminal Aerodrome Forecast
Issued by NWS Chicago, IL

Home | Current Version | Previous Version | Text Only | Print | Product List | Glossary On
Versions: 1 2 3 4 5 6 7 8 9 10 11 12 13 14 15 16 17 18 19 20 21 22 23 24 25 26 27 28
713
FTUS43 KLOT 302335
TAFRFD
TAF
KRFD 302335Z 0100/0124 07016G23KT 4SM -RA BR OVC010
     FM010200 05013KT 3SM -RADZ BR OVC007
     FM010600 04012KT 4SM BR OVC005
     FM011500 04010KT 4SM BR VCSH OVC008
     FM012100 04012G18KT 5SM -SHRA OVC012=

USA.gov is the U.S. government's official web portal to all federal, state and local government web resources and services.